createdAt,value
2023-09-04T00:03:32.941Z,5.40
2023-09-04T00:18:35.425Z,5.77
2023-09-04T00:33:37.861Z,5.80
2023-09-04T00:48:40.957Z,5.57
2023-09-04T01:03:43.891Z,5.63
2023-09-04T01:18:46.747Z,6.50
2023-09-04T01:34:11.890Z,5.77
2023-09-04T01:49:14.585Z,6.97
2023-09-04T02:04:16.950Z,5.60
2023-09-04T02:19:19.393Z,6.50
2023-09-04T02:34:21.774Z,7.63
2023-09-04T02:49:24.129Z,7.20
2023-09-04T03:04:26.557Z,7.63
2023-09-04T03:19:29.217Z,8.47
2023-09-04T03:34:32.559Z,6.53
2023-09-04T03:49:35.094Z,6.73
2023-09-04T04:04:37.509Z,6.77
2023-09-04T04:19:39.963Z,8.57
2023-09-04T04:34:43.367Z,7.97
2023-09-04T04:49:47.978Z,8.07
2023-09-04T05:04:51.110Z,8.73
2023-09-04T05:19:55.055Z,7.20
2023-09-04T05:34:57.839Z,6.20
2023-09-04T05:50:00.432Z,5.77
2023-09-04T06:05:08.207Z,5.87
2023-09-04T06:20:11.801Z,5.37
2023-09-04T06:35:14.774Z,6.70
2023-09-04T06:50:17.600Z,4.87
2023-09-04T07:05:20.520Z,5.93
2023-09-04T07:20:23.008Z,6.30
2023-09-04T07:35:25.586Z,5.60
2023-09-04T07:50:28.562Z,5.53
2023-09-04T08:05:31.126Z,4.87
2023-09-04T08:20:34.265Z,4.50
2023-09-04T08:35:36.795Z,4.53
2023-09-04T08:50:39.363Z,4.33
2023-09-04T09:05:44.513Z,4.30
2023-09-04T09:20:47.215Z,4.30
2023-09-04T09:35:49.817Z,4.27
2023-09-04T09:50:54.532Z,4.10
2023-09-04T10:05:59.833Z,3.83
2023-09-04T10:21:06.247Z,3.70
2023-09-04T10:36:10.895Z,3.60
2023-09-04T10:51:37.180Z,3.37
2023-09-04T11:06:42.044Z,2.60
2023-09-04T11:21:47.957Z,2.50
2023-09-04T11:36:52.358Z,2.60
2023-09-04T11:51:54.789Z,2.40
2023-09-04T12:06:57.979Z,2.50
2023-09-04T12:22:14.510Z,2.30
2023-09-04T12:37:19.234Z,2.60
2023-09-04T12:52:21.792Z,2.43
2023-09-04T13:07:25.205Z,2.37
2023-09-04T13:22:27.937Z,2.60
2023-09-04T13:37:32.524Z,2.30
2023-09-04T13:52:35.777Z,1.92
2023-09-04T14:07:38.330Z,2.33
2023-09-04T14:22:41.316Z,2.10
2023-09-04T14:37:43.987Z,1.92
2023-09-04T14:52:47.417Z,1.80
2023-09-04T15:07:50.039Z,1.70
2023-09-04T15:22:52.710Z,1.80
2023-09-04T15:37:55.765Z,1.70
2023-09-04T15:53:00.735Z,1.80
2023-09-04T16:08:06.335Z,1.77
2023-09-04T16:23:11.470Z,1.52
2023-09-04T16:38:14.478Z,2.03
2023-09-04T16:53:18.819Z,1.73
2023-09-04T17:08:21.853Z,1.80
2023-09-04T17:23:24.741Z,1.97
2023-09-04T17:38:34.358Z,1.60
2023-09-04T17:53:38.169Z,1.60
2023-09-04T18:08:41.614Z,1.47
2023-09-04T18:23:45.321Z,1.50
2023-09-04T18:38:48.362Z,1.57
2023-09-04T18:53:51.337Z,1.57
2023-09-04T19:08:55.936Z,1.60
2023-09-04T19:23:59.182Z,1.47
2023-09-04T19:39:01.933Z,1.63
2023-09-04T19:54:05.604Z,1.63
2023-09-04T20:09:10.528Z,1.73
2023-09-04T20:24:13.323Z,1.87
2023-09-04T20:39:15.913Z,1.90
2023-09-04T20:54:19.193Z,1.77
2023-09-04T21:09:21.696Z,1.90
2023-09-04T21:24:44.061Z,1.60
2023-09-04T21:40:05.296Z,1.67
2023-09-04T21:55:26.948Z,1.47
2023-09-04T22:10:48.414Z,1.87
2023-09-04T22:26:09.561Z,2.00
2023-09-04T22:41:30.848Z,1.90
2023-09-04T22:56:52.471Z,2.10
2023-09-04T23:12:13.322Z,2.00
2023-09-04T23:27:16.258Z,1.90
2023-09-04T23:42:37.384Z,2.20
2023-09-04T23:57:41.329Z,2.20
